Time;durP1;ratioP1;P1;durP2;ratioP2;P2;SDS_P1;SDS_P2;PMS_P1;PMS_P2;Temp;Humidity;BMP_temperature;BMP_pressure;BME280_temperature;BME280_humidity;BME280_pressure;Samples;Min_cycle;Max_cycle;Signal;HPM_P1;HPM_P2
2022/04/20 00:00:38;;;;;;;16.02;13.68;;;;;;;2.35;78.48;96288.27;1614173;87;21377;-81
2022/04/20 00:03:05;;;;;;;15.32;13.20;;;;;;;2.34;78.52;96287.46;1614605;89;20995;-81
2022/04/20 00:05:33;;;;;;;15.13;12.68;;;;;;;2.33;78.60;96285.84;1614426;89;20996;-81
2022/04/20 00:07:58;;;;;;;16.30;13.78;;;;;;;2.30;78.48;96287.87;1614289;87;21023;-81
2022/04/20 00:10:24;;;;;;;17.67;12.95;;;;;;;2.26;78.46;96287.30;1614350;87;21092;-81
2022/04/20 00:12:50;;;;;;;15.03;12.95;;;;;;;2.21;78.48;96297.15;1594441;89;21432;-81
2022/04/20 00:15:15;;;;;;;16.75;14.07;;;;;;;2.15;78.34;96286.16;1614509;87;21363;-81
2022/04/20 00:17:42;;;;;;;21.15;16.30;;;;;;;2.12;78.30;96292.83;1614117;87;21093;-81
2022/04/20 00:20:09;;;;;;;14.98;11.95;;;;;;;2.06;78.08;96289.02;1614571;89;21075;-81
2022/04/20 00:22:35;;;;;;;13.90;11.65;;;;;;;2.02;77.96;96292.80;1614240;87;21014;-81
2022/04/20 00:25:01;;;;;;;16.55;12.40;;;;;;;1.99;77.95;96287.13;1614196;89;21026;-81
2022/04/20 00:27:27;;;;;;;15.65;11.43;;;;;;;1.91;77.92;96289.52;1614345;87;21007;-80
2022/04/20 00:29:52;;;;;;;15.53;13.22;;;;;;;1.84;78.12;96293.55;1640235;87;21334;-81
2022/04/20 00:32:18;;;;;;;19.77;14.93;;;;;;;1.79;78.35;96284.98;1640546;87;21028;-81
2022/04/20 00:34:44;;;;;;;22.30;15.75;;;;;;;1.74;78.34;96284.06;1623452;87;21091;-80
2022/04/20 00:37:10;;;;;;;17.50;14.73;;;;;;;1.74;78.26;96283.26;1612978;89;21034;-81
2022/04/20 00:39:37;;;;;;;25.27;18.20;;;;;;;1.74;78.34;96281.98;1612969;87;21020;-81
2022/04/20 00:42:04;;;;;;;27.00;20.40;;;;;;;1.73;78.50;96282.92;1614484;89;21119;-80
2022/04/20 00:44:29;;;;;;;24.85;19.52;;;;;;;1.71;78.64;96283.05;1628092;87;20995;-81
2022/04/20 00:46:55;;;;;;;23.30;19.20;;;;;;;1.71;78.74;96280.48;1640408;87;21483;-81
2022/04/20 00:49:21;;;;;;;22.75;16.40;;;;;;;1.67;78.82;96277.05;1639949;87;21031;-80
2022/04/20 00:51:57;;;;;;;18.55;13.88;;;;;;;1.66;78.79;96279.27;1612806;87;21035;-81
2022/04/20 00:54:22;;;;;;;16.35;13.13;;;;;;;1.67;78.81;96282.17;1612986;87;21125;-81
2022/04/20 00:56:48;;;;;;;17.37;13.72;;;;;;;1.68;78.76;96274.82;1637231;87;21449;-81
2022/04/20 00:59:20;;;;;;;15.95;13.55;;;;;;;1.68;78.83;96269.70;1640417;87;21017;-80
2022/04/20 01:01:46;;;;;;;20.15;16.02;;;;;;;1.65;78.95;96267.41;1640666;87;21042;-81
2022/04/20 01:04:11;;;;;;;20.85;16.05;;;;;;;1.62;79.07;96265.88;1620161;87;21038;-81
2022/04/20 01:06:37;;;;;;;23.85;18.25;;;;;;;1.58;79.16;96268.37;1640408;87;21341;-81
2022/04/20 01:09:03;;;;;;;23.52;18.82;;;;;;;1.58;79.23;96269.65;1640299;87;20975;-81
2022/04/20 01:11:29;;;;;;;21.60;17.80;;;;;;;1.61;79.20;96271.95;1640318;87;20982;-81
2022/04/20 01:13:55;;;;;;;24.75;18.30;;;;;;;1.65;79.24;96266.93;1614349;87;21067;-81
2022/04/20 01:16:21;;;;;;;25.50;19.80;;;;;;;1.66;79.22;96269.02;1614294;89;20998;-81
2022/04/20 01:18:49;;;;;;;25.12;20.45;;;;;;;1.66;79.22;96272.39;1616593;87;21023;-81
2022/04/20 01:21:15;;;;;;;25.02;19.00;;;;;;;1.64;79.21;96279.40;1640309;87;21042;-80
2022/04/20 01:23:42;;;;;;;22.60;18.62;;;;;;;1.61;79.37;96278.34;1640512;87;21030;-81
2022/04/20 01:26:08;;;;;;;22.05;16.85;;;;;;;1.62;79.46;96279.16;1640580;87;21433;-81
2022/04/20 01:28:37;;;;;;;20.82;16.57;;;;;;;1.62;79.38;96281.72;1640375;87;21015;-81
2022/04/20 01:31:03;;;;;;;17.90;13.90;;;;;;;1.64;79.36;96277.31;1632744;86;20996;-81
2022/04/20 01:33:29;;;;;;;14.18;12.68;;;;;;;1.64;79.36;96273.00;1611589;87;21024;-81
2022/04/20 01:35:55;;;;;;;15.10;12.85;;;;;;;1.65;79.40;96275.89;1614404;87;20932;-81
2022/04/20 01:38:21;;;;;;;19.32;12.75;;;;;;;1.63;79.54;96272.66;1619510;87;21444;-81
2022/04/20 01:40:47;;;;;;;15.63;12.85;;;;;;;1.62;79.68;96272.76;1637386;88;21091;-81
2022/04/20 01:43:13;;;;;;;15.48;13.83;;;;;;;1.60;79.85;96269.05;1637150;88;21100;-81
2022/04/20 01:45:38;;;;;;;16.00;12.63;;;;;;;1.62;79.81;96265.88;1637354;88;20988;-81
2022/04/20 01:48:07;;;;;;;14.60;12.35;;;;;;;1.65;79.72;96259.25;1636822;88;21482;-81
2022/04/20 01:50:33;;;;;;;16.40;12.30;;;;;;;1.68;79.62;96255.14;1637202;88;20968;-81
2022/04/20 01:52:59;;;;;;;15.65;12.33;;;;;;;1.69;79.53;96254.67;1637142;88;21071;-81
2022/04/20 01:55:25;;;;;;;16.48;13.43;;;;;;;1.70;79.58;96255.00;1637350;87;21036;-81
2022/04/20 01:57:52;;;;;;;16.87;13.18;;;;;;;1.67;79.72;96257.36;1637281;88;21135;-81
2022/04/20 02:00:18;;;;;;;18.37;13.43;;;;;;;1.67;79.89;96252.71;1637202;88;20992;-81
2022/04/20 02:02:44;;;;;;;16.70;13.48;;;;;;;1.69;79.98;96249.08;1638050;87;21000;-80
2022/04/20 02:05:12;;;;;;;14.53;12.78;;;;;;;1.74;80.00;96248.67;1637398;88;21427;-81
2022/04/20 02:07:37;;;;;;;15.05;11.53;;;;;;;1.78;79.95;96255.16;1637035;88;21115;-81
2022/04/20 02:10:04;;;;;;;13.53;10.85;;;;;;;1.82;80.06;96248.04;1637315;88;21471;-80
2022/04/20 02:12:30;;;;;;;11.63;10.35;;;;;;;1.81;80.07;96247.23;1636966;87;21012;-81
2022/04/20 02:14:56;;;;;;;14.55;11.65;;;;;;;1.80;80.02;96255.39;1637232;88;20996;-81
2022/04/20 02:17:22;;;;;;;13.25;10.93;;;;;;;1.77;80.06;96254.34;1637174;88;21024;-81
2022/04/20 02:19:48;;;;;;;12.40;10.85;;;;;;;1.79;80.05;96251.20;1637209;87;21390;-81
2022/04/20 02:22:15;;;;;;;12.45;10.43;;;;;;;1.80;79.92;96252.83;1637245;88;21068;-81
2022/04/20 02:24:41;;;;;;;11.33;9.18;;;;;;;1.83;79.82;96251.75;1637082;87;20980;-81
2022/04/20 02:27:09;;;;;;;10.98;9.15;;;;;;;1.84;79.68;96237.19;1637059;87;20988;-81
2022/04/20 02:29:35;;;;;;;13.45;9.58;;;;;;;1.82;79.56;96247.56;1637196;88;21060;-81
2022/04/20 02:32:01;;;;;;;15.28;9.88;;;;;;;1.79;79.56;96241.43;1643474;87;21131;-81
2022/04/20 02:34:27;;;;;;;13.75;10.93;;;;;;;1.76;79.66;96241.67;1650276;87;21459;-81
2022/04/20 02:36:53;;;;;;;12.78;10.45;;;;;;;1.72;79.64;96239.03;1632551;87;21346;-80
2022/04/20 02:39:19;;;;;;;11.43;9.40;;;;;;;1.73;79.66;96244.50;1617624;88;21091;-81
2022/04/20 02:41:45;;;;;;;12.00;9.38;;;;;;;1.73;79.63;96244.50;1618744;87;20975;-81
2022/04/20 02:44:10;;;;;;;12.90;10.93;;;;;;;1.75;79.67;96252.39;1640511;87;21042;-81
2022/04/20 02:46:36;;;;;;;19.52;14.25;;;;;;;1.67;79.38;96253.52;1640824;87;21392;-80
2022/04/20 02:49:02;;;;;;;22.77;17.80;;;;;;;1.62;79.43;96262.05;1640744;87;21357;-81
2022/04/20 02:51:28;;;;;;;56.35;50.65;;;;;;;1.57;79.53;96261.63;1640590;87;21071;-80
2022/04/20 02:53:53;;;;;;;49.85;44.98;;;;;;;1.47;79.26;96262.08;1640671;87;20998;-81
2022/04/20 02:56:19;;;;;;;38.60;32.17;;;;;;;1.42;79.39;96262.44;1640788;87;21484;-81
2022/04/20 02:58:45;;;;;;;33.75;27.05;;;;;;;1.43;79.39;96261.50;1640633;87;20995;-81
2022/04/20 03:01:10;;;;;;;38.67;32.73;;;;;;;1.44;79.25;96255.91;1640417;87;21003;-81
2022/04/20 03:03:36;;;;;;;32.83;28.02;;;;;;;1.40;79.21;96259.20;1640399;87;20967;-81
2022/04/20 03:06:02;;;;;;;30.75;23.80;;;;;;;1.34;79.46;96257.63;1632021;87;20983;-81
2022/04/20 03:08:28;;;;;;;28.98;22.35;;;;;;;1.28;79.66;96258.13;1603779;87;20971;-80
2022/04/20 03:10:53;;;;;;;25.45;19.80;;;;;;;1.28;79.86;96261.49;1596685;90;21489;-81
2022/04/20 03:13:19;;;;;;;22.13;17.17;;;;;;;1.31;80.03;96254.05;1596395;87;21104;-81
2022/04/20 03:15:46;;;;;;;19.67;14.90;;;;;;;1.30;80.24;96247.28;1596577;89;21070;-81
2022/04/20 03:18:12;;;;;;;19.07;13.85;;;;;;;1.42;80.38;96262.91;1596484;89;21476;-81
2022/04/20 03:20:38;;;;;;;27.45;21.40;;;;;;;1.48;80.67;96266.26;1599155;87;21078;-81
2022/04/20 03:23:06;;;;;;;35.95;27.27;;;;;;;1.50;80.89;96268.22;1614260;89;21071;-81
2022/04/20 03:25:32;;;;;;;36.53;28.70;;;;;;;1.55;81.12;96270.38;1596309;90;21417;-81
2022/04/20 03:27:57;;;;;;;41.45;29.63;;;;;;;1.61;81.28;96274.51;1596233;90;21002;-81
2022/04/20 03:30:23;;;;;;;35.45;27.10;;;;;;;1.70;81.37;96279.34;1586595;90;20995;-81
2022/04/20 03:32:49;;;;;;;35.23;27.42;;;;;;;1.76;81.26;96282.66;1590481;89;21063;-81
2022/04/20 03:35:16;;;;;;;42.75;32.58;;;;;;;1.80;81.07;96284.84;1603148;89;21408;-81
2022/04/20 03:37:41;;;;;;;45.58;34.53;;;;;;;1.82;81.00;96281.34;1606156;89;21014;-81
2022/04/20 03:40:08;;;;;;;42.45;30.62;;;;;;;1.75;80.56;96290.00;1607736;89;21015;-81
2022/04/20 03:42:35;;;;;;;43.65;32.23;;;;;;;1.74;80.70;96285.82;1609538;89;21018;-81
2022/04/20 03:45:01;;;;;;;41.75;30.08;;;;;;;1.68;80.97;96285.88;1609355;89;21093;-81
2022/04/20 03:47:26;;;;;;;42.45;28.25;;;;;;;1.65;80.82;96283.58;1591867;89;21027;-81
2022/04/20 03:49:52;;;;;;;41.65;31.85;;;;;;;1.68;80.86;96276.91;1620259;89;20963;-81
2022/04/20 03:52:18;;;;;;;42.30;32.10;;;;;;;1.63;80.97;96270.09;1622971;87;21014;-81
2022/04/20 03:54:44;;;;;;;44.30;33.53;;;;;;;1.71;81.58;96275.84;1621751;88;20952;-81
2022/04/20 03:57:10;;;;;;;43.48;32.95;;;;;;;1.69;81.37;96280.28;1621535;87;21414;-83
2022/04/20 03:59:37;;;;;;;51.18;37.95;;;;;;;1.66;81.63;96268.55;1623290;87;21416;-81
2022/04/20 04:02:05;;;;;;;49.50;33.65;;;;;;;1.63;81.95;96267.53;1639157;87;20978;-82
2022/04/20 04:04:31;;;;;;;46.60;35.43;;;;;;;1.69;82.06;96270.84;1620056;87;21073;-81
2022/04/20 04:06:57;;;;;;;54.67;38.33;;;;;;;1.73;81.95;96270.11;1620368;87;21059;-80
2022/04/20 04:09:22;;;;;;;50.45;34.50;;;;;;;1.75;81.81;96261.35;1620474;89;21385;-80
2022/04/20 04:11:48;;;;;;;51.75;36.55;;;;;;;1.78;81.79;96266.21;1620375;89;21054;-80
2022/04/20 04:14:14;;;;;;;45.28;33.40;;;;;;;1.82;82.04;96265.97;1620238;89;21125;-80
2022/04/20 04:16:40;;;;;;;49.73;39.10;;;;;;;1.84;81.94;96262.34;1620739;87;21000;-80
2022/04/20 04:19:07;;;;;;;51.92;36.13;;;;;;;1.83;81.89;96270.16;1621654;87;21370;-80
2022/04/20 04:21:36;;;;;;;52.48;37.63;;;;;;;1.84;82.14;96273.05;1622785;87;20956;-80
2022/04/20 04:24:01;;;;;;;50.12;36.65;;;;;;;1.86;82.23;96268.61;1621398;88;21505;-80
2022/04/20 04:26:28;;;;;;;49.38;35.75;;;;;;;1.90;82.31;96276.37;1621655;88;21353;-80
2022/04/20 04:28:54;;;;;;;46.63;35.85;;;;;;;1.95;82.08;96275.49;1621428;88;21034;-80
2022/04/20 04:31:19;;;;;;;49.93;36.03;;;;;;;1.99;82.03;96278.16;1628305;87;21051;-80
2022/04/20 04:33:45;;;;;;;48.52;37.40;;;;;;;2.04;82.22;96277.28;1625840;87;21043;-80
2022/04/20 04:36:11;;;;;;;50.70;36.35;;;;;;;2.04;82.14;96283.22;1621374;87;20979;-80
2022/04/20 04:38:37;;;;;;;55.80;39.73;;;;;;;2.05;82.36;96281.47;1621664;87;21015;-80
2022/04/20 04:41:03;;;;;;;52.45;38.50;;;;;;;2.07;82.37;96290.64;1621193;87;21403;-80
2022/04/20 04:43:28;;;;;;;52.60;37.17;;;;;;;2.15;82.33;96282.31;1621476;88;21059;-80
2022/04/20 04:48:39;;;;;;;49.48;37.35;;;;;;;2.35;81.94;96290.84;1642041;87;21026;-80
2022/04/20 04:51:10;;;;;;;49.15;36.25;;;;;;;2.38;81.71;96291.38;1626674;87;21350;-80
2022/04/20 04:53:37;;;;;;;50.58;37.85;;;;;;;2.37;81.63;96294.08;1647556;87;21032;-81
2022/04/20 04:56:03;;;;;;;49.40;36.03;;;;;;;2.40;81.73;96283.07;1647625;87;21031;-81
2022/04/20 04:58:28;;;;;;;48.42;34.83;;;;;;;2.43;81.74;96293.53;1647972;87;21018;-81
2022/04/20 05:00:54;;;;;;;48.83;35.17;;;;;;;2.44;81.68;96295.17;1646887;86;21432;-80
2022/04/20 05:03:20;;;;;;;45.05;33.65;;;;;;;2.48;81.57;96295.24;1647461;87;21062;-80
2022/04/20 05:05:46;;;;;;;42.25;30.82;;;;;;;2.52;81.46;96291.94;1643692;87;21037;-81
2022/04/20 05:08:12;;;;;;;40.88;32.00;;;;;;;2.60;81.60;96301.03;1621159;87;20991;-80
2022/04/20 05:10:38;;;;;;;45.45;32.93;;;;;;;2.66;81.55;96303.08;1621186;87;21005;-81
2022/04/20 05:13:05;;;;;;;47.67;34.00;;;;;;;2.68;81.32;96297.34;1621324;88;21003;-80
2022/04/20 05:15:31;;;;;;;48.40;36.48;;;;;;;2.65;81.16;96296.33;1621293;88;21105;-80
2022/04/20 05:17:56;;;;;;;49.63;36.10;;;;;;;2.66;81.28;96294.10;1621269;88;21037;-80
2022/04/20 05:20:22;;;;;;;49.90;35.28;;;;;;;2.67;81.40;96295.25;1621273;88;21026;-80
2022/04/20 05:22:48;;;;;;;43.60;32.42;;;;;;;2.75;81.41;96293.27;1644311;87;21463;-80
2022/04/20 05:25:15;;;;;;;44.40;33.20;;;;;;;2.84;81.12;96300.17;1629692;88;20961;-80
2022/04/20 05:27:40;;;;;;;44.53;33.98;;;;;;;2.89;81.06;96294.63;1602461;90;21060;-80
2022/04/20 05:30:08;;;;;;;47.33;35.00;;;;;;;2.93;80.81;96291.67;1647266;87;21398;-80
2022/04/20 05:32:34;;;;;;;42.80;32.75;;;;;;;2.97;80.70;96290.45;1647700;87;20990;-81
2022/04/20 05:34:59;;;;;;;43.85;32.65;;;;;;;2.98;80.68;96289.97;1647647;87;21057;-81
2022/04/20 05:42:54;;;;;;;45.08;33.40;;;;;;;3.04;80.39;96297.59;1668964;86;21046;-80
2022/04/20 05:45:20;;;;;;;41.05;31.00;;;;;;;3.12;80.14;96294.69;1668734;86;21046;-80
2022/04/20 05:47:46;;;;;;;42.08;32.25;;;;;;;3.19;79.79;96298.78;1668926;86;20995;-80
2022/04/20 05:50:12;;;;;;;41.85;31.33;;;;;;;3.25;79.87;96300.78;1668800;86;21023;-81
2022/04/20 05:52:38;;;;;;;44.85;33.10;;;;;;;3.38;79.96;96291.50;1669018;86;20971;-81
2022/04/20 05:55:06;;;;;;;45.23;32.40;;;;;;;3.49;79.68;96296.02;1669013;86;20998;-81
2022/04/20 05:57:33;;;;;;;48.75;36.98;;;;;;;3.58;79.97;96284.91;1668887;86;21054;-81
2022/04/20 05:59:59;;;;;;;53.83;39.25;;;;;;;3.67;80.44;96287.09;1668915;86;21122;-81
2022/04/20 06:02:24;;;;;;;55.85;39.60;;;;;;;3.80;80.01;96288.06;1653847;86;21065;-81
2022/04/20 06:04:50;;;;;;;54.98;37.83;;;;;;;3.86;79.67;96289.58;1642787;87;21059;-80
2022/04/20 06:07:16;;;;;;;49.30;34.08;;;;;;;3.95;79.52;96284.07;1635563;87;21361;-80
2022/04/20 06:09:42;;;;;;;52.20;35.43;;;;;;;4.06;79.20;96281.28;1638026;87;21025;-81
2022/04/20 06:12:08;;;;;;;53.83;37.23;;;;;;;4.20;79.51;96275.66;1634872;87;20957;-81
2022/04/20 06:14:34;;;;;;;48.42;35.58;;;;;;;4.30;79.86;96276.90;1635149;87;21384;-81
2022/04/20 06:16:59;;;;;;;48.87;36.40;;;;;;;4.37;79.92;96277.11;1635763;87;21087;-80
2022/04/20 06:19:25;;;;;;;51.30;37.85;;;;;;;4.44;79.60;96276.88;1627955;87;20917;-81
2022/04/20 06:21:51;;;;;;;51.73;38.45;;;;;;;4.52;79.54;96280.32;1637272;87;21045;-81
2022/04/20 06:24:17;;;;;;;40.95;30.92;;;;;;;4.55;78.86;96279.22;1632370;87;21387;-81
2022/04/20 06:26:43;;;;;;;42.15;30.97;;;;;;;4.56;78.50;96276.20;1632464;87;21025;-80
2022/04/20 06:29:08;;;;;;;46.68;34.88;;;;;;;4.53;78.28;96275.51;1641692;87;20978;-81
2022/04/20 06:31:35;;;;;;;44.65;33.15;;;;;;;4.62;79.05;96275.59;1642082;86;21242;-80
2022/04/20 06:34:02;;;;;;;41.40;31.48;;;;;;;4.70;78.49;96270.03;1642937;87;20957;-81
2022/04/20 06:36:27;;;;;;;41.35;31.60;;;;;;;4.72;78.71;96269.42;1640152;87;20953;-80
2022/04/20 06:38:55;;;;;;;43.60;32.63;;;;;;;4.78;78.65;96268.02;1640114;87;20969;-80
2022/04/20 06:41:21;;;;;;;46.75;34.13;;;;;;;4.80;78.83;96265.62;1626296;87;21029;-81
2022/04/20 06:43:47;;;;;;;42.38;32.55;;;;;;;4.86;78.67;96261.63;1624697;87;20983;-80
2022/04/20 06:46:12;;;;;;;41.13;32.45;;;;;;;4.94;78.65;96257.04;1593983;87;22089;-81
2022/04/20 06:48:38;;;;;;;44.60;32.95;;;;;;;4.98;77.59;96255.30;1624388;87;21034;-81
2022/04/20 06:51:04;;;;;;;43.08;32.58;;;;;;;5.00;78.21;96256.43;1625444;87;20979;-81
2022/04/20 06:58:58;;;;;;;46.48;34.38;;;;;;;5.06;78.08;96249.41;1629641;87;21018;-81
2022/04/20 07:01:24;;;;;;;44.88;33.90;;;;;;;5.01;77.71;96250.31;1631125;86;21972;-80
2022/04/20 07:03:49;;;;;;;49.00;35.17;;;;;;;5.03;77.31;96249.20;1624846;87;20987;-80
2022/04/20 07:06:15;;;;;;;48.33;37.78;;;;;;;5.05;77.05;96250.37;1620989;87;20983;-81
2022/04/20 07:08:41;;;;;;;50.90;38.95;;;;;;;5.08;77.98;96252.64;1624068;87;20987;-81
2022/04/20 07:11:07;;;;;;;44.13;33.60;;;;;;;5.11;78.20;96247.98;1624781;87;20975;-81
2022/04/20 07:13:33;;;;;;;50.12;37.35;;;;;;;5.10;77.31;96246.38;1617441;87;21006;-80
2022/04/20 07:15:58;;;;;;;52.13;38.65;;;;;;;5.07;77.63;96246.68;1625346;87;21035;-80
2022/04/20 07:18:25;;;;;;;49.38;36.80;;;;;;;5.04;77.48;96244.86;1632640;87;20991;-80
2022/04/20 07:20:51;;;;;;;49.90;36.38;;;;;;;5.01;77.59;96252.89;1632558;87;21011;-81
2022/04/20 07:23:17;;;;;;;42.27;30.50;;;;;;;4.98;77.70;96249.34;1625252;87;21329;-81
2022/04/20 07:25:43;;;;;;;39.35;28.83;;;;;;;4.96;76.64;96249.49;1634575;87;20963;-81
2022/04/20 07:28:09;;;;;;;44.30;32.48;;;;;;;4.91;76.48;96249.63;1623835;87;21069;-80
2022/04/20 07:30:35;;;;;;;39.85;31.95;;;;;;;4.91;76.01;96258.63;1625160;87;21046;-80
2022/04/20 07:33:02;;;;;;;45.45;36.17;;;;;;;4.90;76.64;96257.83;1620527;87;20979;-80
2022/04/20 07:35:29;;;;;;;33.15;26.20;;;;;;;4.83;75.72;96257.59;1626684;87;20991;-81
2022/04/20 07:37:55;;;;;;;31.60;24.92;;;;;;;4.79;75.94;96254.99;1628565;87;21064;-81
2022/04/20 07:40:21;;;;;;;30.97;23.80;;;;;;;4.76;76.00;96255.30;1627739;87;21023;-81
2022/04/20 07:42:55;;;;;;;33.78;24.55;;;;;;;4.69;75.91;96254.73;1617334;87;21354;-80
2022/04/20 07:45:25;;;;;;;29.05;22.87;;;;;;;4.64;75.67;96253.90;1598523;87;21032;-80
2022/04/20 07:47:55;;;;;;;30.95;24.15;;;;;;;4.62;75.67;96250.67;1627914;87;20983;-81
2022/04/20 07:50:25;;;;;;;28.30;22.60;;;;;;;4.67;76.03;96255.36;1627505;87;21412;-81
2022/04/20 07:52:58;;;;;;;28.47;22.67;;;;;;;4.67;76.11;96251.02;1628290;87;21365;-81
2022/04/20 07:55:29;;;;;;;28.52;22.85;;;;;;;4.67;75.56;96245.06;1623258;87;20956;-81
2022/04/20 07:58:00;;;;;;;28.17;21.60;;;;;;;4.68;75.90;96246.20;1635497;87;21437;-81
2022/04/20 08:00:26;;;;;;;34.65;26.10;;;;;;;4.67;76.18;96242.02;1625079;87;21041;-81
2022/04/20 08:03:15;;;;;;;35.52;28.10;;;;;;;4.66;76.00;96237.83;1629341;87;20971;-80
2022/04/20 08:05:42;;;;;;;33.63;26.52;;;;;;;4.65;76.22;96236.22;1629469;87;20980;-81
2022/04/20 08:08:09;;;;;;;32.90;25.45;;;;;;;4.64;76.02;96235.88;1622931;87;21038;-81
2022/04/20 08:10:36;;;;;;;34.58;28.32;;;;;;;4.67;76.41;96235.58;1628175;87;21320;-80
2022/04/20 08:14:09;;;;;;;33.63;28.47;;;;;;;4.71;76.35;96234.80;1631696;87;21347;-81
2022/04/20 08:15:29;;;;;;;35.60;28.15;;;;;;;4.77;76.62;96231.17;1613020;87;21067;-81
2022/04/20 08:17:55;;;;;;;39.90;32.08;;;;;;;4.82;76.67;96230.23;1620776;87;21405;-80
2022/04/20 08:20:21;;;;;;;36.25;29.57;;;;;;;4.86;76.41;96235.08;1617605;87;21038;-81
2022/04/20 08:22:46;;;;;;;38.10;30.37;;;;;;;4.90;76.46;96233.36;1624779;87;21376;-81
2022/04/20 08:25:13;;;;;;;38.85;30.97;;;;;;;4.92;76.67;96241.74;1637550;87;21065;-80
2022/04/20 08:27:39;;;;;;;39.58;29.37;;;;;;;4.93;76.27;96232.25;1612430;87;21038;-81
2022/04/20 08:30:07;;;;;;;34.53;27.80;;;;;;;4.98;76.54;96233.41;1613076;87;21405;-82
2022/04/20 08:32:33;;;;;;;38.08;30.43;;;;;;;5.03;76.51;96226.51;1617378;87;21022;-81
2022/04/20 08:34:59;;;;;;;40.12;30.60;;;;;;;5.04;76.69;96219.11;1614232;87;20991;-81
2022/04/20 08:37:25;;;;;;;37.48;31.57;;;;;;;5.18;77.08;96225.48;1613583;87;20991;-81
2022/04/20 08:39:50;;;;;;;38.53;29.60;;;;;;;5.23;77.06;96222.80;1613837;87;21342;-82
2022/04/20 08:42:19;;;;;;;31.82;26.25;;;;;;;5.27;76.41;96222.00;1630812;87;20994;-81
2022/04/20 08:44:49;;;;;;;29.52;23.77;;;;;;;5.28;75.66;96217.17;1630210;87;21046;-81
2022/04/20 08:47:21;;;;;;;27.87;21.77;;;;;;;5.27;75.23;96216.38;1628137;88;21436;-81
2022/04/20 08:49:49;;;;;;;29.23;24.65;;;;;;;5.24;75.04;96209.44;1627255;88;21129;-81
2022/04/20 08:52:37;;;;;;;31.25;24.75;;;;;;;5.24;75.41;96208.14;1631473;87;20967;-81
2022/04/20 08:55:05;;;;;;;30.97;25.23;;;;;;;5.30;75.22;96208.81;1624852;87;20983;-81
2022/04/20 08:57:33;;;;;;;25.90;21.55;;;;;;;5.38;75.14;96207.10;1634993;87;21027;-86
2022/04/20 08:59:59;;;;;;;27.75;21.85;;;;;;;5.41;74.70;96204.21;1634646;87;21011;-81
2022/04/20 09:02:28;;;;;;;26.37;20.75;;;;;;;5.42;74.08;96208.40;1638513;87;21130;-81
2022/04/20 09:04:55;;;;;;;23.75;21.15;;;;;;;5.47;74.12;96209.22;1636856;87;21066;-80
2022/04/20 09:07:21;;;;;;;22.27;19.23;;;;;;;5.42;73.88;96204.53;1643803;87;21065;-80
2022/04/20 09:09:47;;;;;;;23.00;19.17;;;;;;;5.42;74.04;96201.95;1634875;87;21038;-81
2022/04/20 09:12:22;;;;;;;24.02;19.00;;;;;;;5.45;73.54;96208.57;1626587;87;21030;-81
2022/04/20 09:14:50;;;;;;;24.18;19.85;;;;;;;5.46;74.40;96201.16;1646695;87;21085;-81
2022/04/20 09:17:20;;;;;;;24.67;19.95;;;;;;;5.56;74.51;96199.29;1630405;87;20967;-81
2022/04/20 09:19:53;;;;;;;21.40;18.65;;;;;;;5.65;74.18;96200.92;1642156;87;20986;-81
2022/04/20 09:22:27;;;;;;;24.87;19.90;;;;;;;5.67;73.45;96196.41;1641500;87;21080;-81
2022/04/20 09:25:11;;;;;;;22.42;19.02;;;;;;;5.72;73.36;96192.09;1628502;87;21087;-82
2022/04/20 09:27:38;;;;;;;;;;;;;;;5.80;73.48;96186.15;1635937;87;21018;-82
2022/04/20 09:30:07;;;;;;;22.58;19.02;;;;;;;5.85;72.75;96192.44;1632980;87;20083;-81
2022/04/20 09:32:41;;;;;;;23.60;19.17;;;;;;;5.88;72.56;96190.05;1641225;87;21112;-82
2022/04/20 09:35:10;;;;;;;21.57;18.37;;;;;;;5.88;72.81;96183.61;1633644;87;20997;-81
2022/04/20 09:37:36;;;;;;;22.45;18.20;;;;;;;5.93;72.68;96182.19;1646701;87;20990;-82
2022/04/20 09:40:06;;;;;;;17.65;15.05;;;;;;;5.98;72.64;96185.58;1629429;87;20982;-82
2022/04/20 09:42:34;;;;;;;16.52;13.95;;;;;;;5.99;71.96;96176.39;1642368;87;21006;-82
2022/04/20 09:45:05;;;;;;;17.77;14.30;;;;;;;5.99;71.52;96184.13;1614857;88;21047;-82
2022/04/20 09:50:25;;;;;;;19.07;16.55;;;;;;;6.13;71.24;96184.00;1617852;87;21002;-81
2022/04/20 09:52:58;;;;;;;17.65;15.55;;;;;;;6.14;70.73;96187.39;1641770;87;21062;-81
2022/04/20 09:55:33;;;;;;;17.07;15.28;;;;;;;6.14;70.30;96184.80;1643907;87;21006;-82
2022/04/20 09:58:18;;;;;;;18.55;16.55;;;;;;;6.16;70.87;96187.55;1654516;87;20989;-82
2022/04/20 10:00:50;;;;;;;18.10;15.25;;;;;;;6.16;70.48;96187.55;1652420;87;21081;-82
2022/04/20 10:03:28;;;;;;;16.52;13.48;;;;;;;6.18;70.68;96188.67;1640228;87;21405;-82
2022/04/20 10:05:54;;;;;;;17.85;13.28;;;;;;;6.14;69.64;96184.80;1645187;87;20990;-81
2022/04/20 10:08:20;;;;;;;19.65;17.05;;;;;;;6.09;69.98;96178.03;1637194;87;21395;-81
2022/04/20 10:10:50;;;;;;;17.40;15.60;;;;;;;6.09;70.42;96182.71;1634303;87;20971;-81
2022/04/20 10:13:16;;;;;;;15.35;13.68;;;;;;;6.10;70.10;96181.74;1649076;87;21420;-81
2022/04/20 10:18:28;;;;;;;14.93;13.30;;;;;;;6.09;69.51;96172.88;1639475;87;21442;-82
2022/04/20 10:20:59;;;;;;;16.32;14.58;;;;;;;6.12;69.69;96173.36;1635728;87;20997;-81
2022/04/20 10:23:25;;;;;;;14.50;12.17;;;;;;;6.15;69.32;96170.94;1638388;87;20978;-82
2022/04/20 10:25:52;;;;;;;13.72;11.18;;;;;;;6.19;68.17;96173.06;1648583;87;21127;-83
2022/04/20 10:28:46;;;;;;;12.68;10.25;;;;;;;6.23;67.83;96168.39;1649078;85;21069;-82
2022/04/20 10:31:22;;;;;;;13.48;11.43;;;;;;;6.26;68.91;96166.77;1645745;87;21016;-81
2022/04/20 10:33:49;;;;;;;13.32;11.18;;;;;;;6.33;68.35;96171.60;1652304;87;21319;-82
2022/04/20 10:36:16;;;;;;;13.22;11.38;;;;;;;6.34;68.09;96160.31;1647749;87;20938;-82
2022/04/20 10:38:44;;;;;;;12.00;10.70;;;;;;;6.40;68.06;96162.75;1646720;87;20978;-81
2022/04/20 10:41:19;;;;;;;9.23;8.30;;;;;;;6.41;66.22;96157.42;1639489;87;21015;-81
2022/04/20 10:43:47;;;;;;;10.78;8.78;;;;;;;6.44;67.16;96158.87;1599688;89;21012;-82
2022/04/20 10:46:18;;;;;;;8.95;8.00;;;;;;;6.46;65.83;96153.06;1596166;89;21059;-81
2022/04/20 10:48:58;;;;;;;9.40;8.18;;;;;;;6.52;66.06;96157.12;1624201;86;21461;-81
2022/04/20 10:51:40;;;;;;;9.55;7.53;;;;;;;6.61;65.92;96159.19;1623789;87;21397;-81
2022/04/20 10:54:29;;;;;;;9.10;7.75;;;;;;;6.66;64.31;96158.70;1617085;87;21381;-81
2022/04/20 10:57:07;;;;;;;9.43;7.92;;;;;;;6.66;64.16;96153.05;1601819;87;21121;-80
2022/04/20 10:59:33;;;;;;;8.28;7.47;;;;;;;6.70;64.76;96150.48;1628802;87;20995;-81
2022/04/20 11:02:06;;;;;;;8.85;7.15;;;;;;;6.76;65.10;96153.70;1629272;87;21452;-81
2022/04/20 11:04:41;;;;;;;7.85;7.03;;;;;;;6.83;64.35;96155.12;1624847;86;21058;-81
2022/04/20 11:07:12;;;;;;;10.10;9.10;;;;;;;6.86;64.46;96158.22;1612546;86;29200;-81
2022/04/20 11:09:50;;;;;;;9.60;8.70;;;;;;;6.98;64.27;96150.91;1625615;87;20999;-81
2022/04/20 11:21:10;;;;;;;9.05;7.90;;;;;;;6.92;63.26;96147.70;1634149;87;21352;-81
2022/04/20 11:23:59;;;;;;;9.08;7.25;;;;;;;6.92;63.74;96152.37;1627744;87;21058;-81
2022/04/20 11:26:35;;;;;;;10.32;9.20;;;;;;;6.95;63.24;96150.44;1624550;87;21010;-81
2022/04/20 11:29:18;;;;;;;10.23;8.58;;;;;;;6.91;63.29;96149.97;1630572;87;21018;-81
2022/04/20 11:31:48;;;;;;;11.43;9.50;;;;;;;6.89;62.30;96149.33;1627513;87;21046;-81
2022/04/20 11:34:17;;;;;;;13.20;10.28;;;;;;;6.87;62.78;96149.98;1619556;87;21059;-81
2022/04/20 11:36:46;;;;;;;14.15;10.58;;;;;;;6.88;62.75;96146.42;1617924;87;21010;-82
2022/04/20 11:39:14;;;;;;;11.70;9.10;;;;;;;6.93;64.18;96146.73;1628729;87;21060;-81
2022/04/20 11:41:49;;;;;;;10.45;9.33;;;;;;;6.96;63.11;96142.52;1635215;87;21094;-81
2022/04/20 11:44:31;;;;;;;12.40;11.03;;;;;;;6.95;64.05;96147.37;1644598;87;20943;-81
2022/04/20 11:47:03;;;;;;;14.47;11.05;;;;;;;6.93;62.66;96145.44;1640000;87;21186;-81
2022/04/20 11:49:37;;;;;;;13.75;12.33;;;;;;;6.88;62.19;96146.42;1640340;87;21097;-81
2022/04/20 11:52:06;;;;;;;11.83;9.78;;;;;;;6.88;62.79;96139.97;1639145;87;20955;-81
2022/04/20 11:54:33;;;;;;;12.00;9.65;;;;;;;6.88;62.76;96138.67;1635800;87;21024;-81
2022/04/20 11:56:58;;;;;;;13.10;9.98;;;;;;;6.91;63.14;96135.27;1633046;87;21524;-81